LIRF/FCO METAR and TAF weather

Enter ICAO airport designator
Station Type Date Time Source
LIRF METAR 2018/12/10 12:50 UTC NOAA

LIRF 101250Z 36007KT 320V040 CAVOK 17/08 Q1013 NOSIG


Station Type Date Time Source
LIRF Decoded METAR 2018/12/10 12:50 UTC NOAA

Roma Fiumicino, Italy (LIRF) 41-48N 012-14E 3M
Dec 10, 2018 - 07:50 AM EST / 2018.12.10 1250 UTC
Wind: from the N (360 degrees) at 8 MPH (7 KT) (direction variable):0
Visibility: greater than 7 mile(s):0
Temperature: 62 F (17 C)
Dew Point: 46 F (8 C)
Relative Humidity: 55%
Pressure (altimeter): 29.91 in. Hg (1013 hPa)
ob: LIRF 101250Z 36007KT 320V040 CAVOK 17/08 Q1013 NOSIG
cycle: 13

Station Type Date Time Source
LIRF TAF 2018/12/10 12:22 UTC NOAA

TAF LIRF 101100Z 1012/1118 34015KT CAVOK
BECMG 1018/1021 03006KT


Example: see airport list